UATG 181900Z 32004MPS CAVOK 14/01 Q1012 NOSIG RMK QFE761/1014
QNH:(hPa/inHg/mmHg)1012 / 29.88 / 759
QFE:(hPa/inHg/mmHg)1015 / 29.96 / 761
Temperature14
Dew Point1
Visibility> 10000
WeatherCAVOK
Cloud Cover
Transition Altitude10000 ft.
Transition LevelFL120
SQUAWK